Time;durP1;ratioP1;P1;durP2;ratioP2;P2;SDS_P1;SDS_P2;PMS_P1;PMS_P2;Temp;Humidity;BMP_temperature;BMP_pressure;BME280_temperature;BME280_humidity;BME280_pressure;Samples;Min_cycle;Max_cycle;Signal;HPM_P1;HPM_P2
2021/09/08 00:00:33;;;;;;;14.83;8.60;;;;;;;8.66;78.83;101702.38;1814130;77;21046;-73
2021/09/08 00:03:00;;;;;;;13.98;9.13;;;;;;;8.68;78.71;101705.11;1793119;78;21115;-73
2021/09/08 00:05:26;;;;;;;14.15;8.23;;;;;;;8.71;78.65;101698.55;1794109;78;21522;-72
2021/09/08 00:07:53;;;;;;;13.60;8.70;;;;;;;8.77;78.40;101704.34;1801178;78;21588;-73
2021/09/08 00:10:21;;;;;;;12.05;8.03;;;;;;;8.81;78.30;101702.05;1776057;78;21046;-72
2021/09/08 00:12:50;;;;;;;11.78;8.08;;;;;;;8.81;78.24;101703.39;1789336;78;21010;-72
2021/09/08 00:15:17;;;;;;;12.55;7.92;;;;;;;8.82;78.17;101707.70;1786684;78;21181;-72
2021/09/08 00:17:44;;;;;;;12.82;7.92;;;;;;;8.82;78.19;101710.37;1794236;78;21034;-74
2021/09/08 00:20:15;;;;;;;14.00;8.78;;;;;;;8.78;78.29;101712.63;1796402;78;21493;-71
2021/09/08 00:22:44;;;;;;;16.73;8.50;;;;;;;8.77;78.37;101710.19;1788335;78;21045;-72
2021/09/08 00:25:11;;;;;;;14.00;8.40;;;;;;;8.78;78.58;101713.95;1776192;78;21521;-73
2021/09/08 00:27:38;;;;;;;14.15;8.45;;;;;;;8.80;78.59;101713.75;1831933;77;21173;-73
2021/09/08 00:30:06;;;;;;;16.42;9.10;;;;;;;8.76;78.68;101716.03;1839914;76;21021;-73
2021/09/08 00:32:35;;;;;;;13.62;8.28;;;;;;;8.77;78.79;101722.17;1842721;76;21580;-73
2021/09/08 00:35:04;;;;;;;16.25;8.85;;;;;;;8.77;78.92;101720.84;1836157;76;21532;-71
2021/09/08 00:37:31;;;;;;;15.23;9.28;;;;;;;8.78;79.02;101723.27;1830625;76;21117;-72
2021/09/08 00:39:59;;;;;;;14.47;8.80;;;;;;;8.78;79.19;101717.95;1840378;76;21126;-73
2021/09/08 00:42:26;;;;;;;13.95;8.30;;;;;;;8.78;79.31;101717.95;1838536;76;21230;-72
2021/09/08 00:44:53;;;;;;;14.78;7.87;;;;;;;8.78;79.35;101715.80;1840283;76;21027;-72
2021/09/08 00:47:20;;;;;;;14.87;8.08;;;;;;;8.77;79.36;101714.19;1824770;76;21082;-72
2021/09/08 00:49:47;;;;;;;14.38;7.95;;;;;;;8.72;79.48;101718.00;1838739;76;21011;-72
2021/09/08 00:52:13;;;;;;;14.15;8.65;;;;;;;8.70;79.59;101715.56;1831785;77;21533;-72
2021/09/08 00:54:50;;;;;;;14.05;8.48;;;;;;;8.63;79.64;101713.47;1813449;77;21077;-72
2021/09/08 00:57:20;;;;;;;13.35;8.30;;;;;;;8.55;79.72;101721.70;1844825;76;21073;-72
2021/09/08 00:59:48;;;;;;;14.55;8.33;;;;;;;8.51;79.86;101725.31;1837781;76;21030;-72
2021/09/08 01:02:17;;;;;;;13.72;7.95;;;;;;;8.50;79.89;101722.36;1836253;76;21130;-72
2021/09/08 01:04:43;;;;;;;14.33;8.03;;;;;;;8.44;79.99;101719.21;1840203;76;22139;-72
2021/09/08 01:07:14;;;;;;;11.97;7.50;;;;;;;8.43;80.06;101717.59;1838159;76;21093;-73
2021/09/08 01:09:43;;;;;;;13.32;7.87;;;;;;;8.41;80.12;101714.31;1832912;76;21120;-72
2021/09/08 01:12:11;;;;;;;10.38;7.03;;;;;;;8.32;80.21;101712.89;1827308;77;21145;-71
2021/09/08 01:14:42;;;;;;;10.60;7.55;;;;;;;8.31;80.24;101718.73;1839212;76;21060;-72
2021/09/08 01:17:11;;;;;;;11.73;7.10;;;;;;;8.30;80.27;101717.11;1831888;77;21086;-71
2021/09/08 01:19:38;;;;;;;13.60;8.35;;;;;;;8.29;80.19;101719.48;1842454;76;21194;-72
2021/09/08 01:22:04;;;;;;;13.45;7.95;;;;;;;8.30;80.18;101721.63;1832490;76;21086;-73
2021/09/08 01:24:31;;;;;;;12.10;7.87;;;;;;;8.29;80.15;101712.83;1831388;77;21502;-73
2021/09/08 01:26:59;;;;;;;11.03;7.05;;;;;;;8.30;80.08;101713.12;1834938;77;21572;-72
2021/09/08 01:29:26;;;;;;;13.13;7.33;;;;;;;8.30;79.98;101708.31;1842811;76;21113;-72
2021/09/08 01:31:58;;;;;;;11.33;7.28;;;;;;;8.32;79.87;101711.05;1840426;76;21015;-72
2021/09/08 01:34:26;;;;;;;12.63;7.35;;;;;;;8.33;79.80;101713.22;1832462;76;21175;-72
2021/09/08 01:36:53;;;;;;;12.53;7.83;;;;;;;8.32;79.73;101707.05;1838324;76;21522;-71
2021/09/08 01:39:21;;;;;;;11.90;7.22;;;;;;;8.33;79.50;101704.71;1839141;76;21045;-71
2021/09/08 01:41:48;;;;;;;13.35;8.03;;;;;;;8.35;79.33;101703.97;1836060;76;21909;-71
2021/09/08 01:44:23;;;;;;;12.15;7.30;;;;;;;8.36;79.19;101704.80;1836162;76;21558;-70
2021/09/08 01:46:52;;;;;;;11.43;7.67;;;;;;;8.39;78.98;101704.37;1836773;77;21078;-69
2021/09/08 01:49:18;;;;;;;11.40;7.37;;;;;;;8.39;78.74;101705.72;1835505;76;20994;-69
2021/09/08 01:51:45;;;;;;;12.58;7.83;;;;;;;8.38;78.52;101698.77;1833560;76;21042;-69
2021/09/08 01:54:12;;;;;;;11.93;7.35;;;;;;;8.37;78.28;101705.09;1822687;76;21458;-69
2021/09/08 01:56:38;;;;;;;12.10;7.65;;;;;;;8.36;78.00;101699.48;1828423;77;21070;-69
2021/09/08 01:59:06;;;;;;;11.20;6.87;;;;;;;8.36;77.75;101701.63;1830174;76;21545;-69
2021/09/08 02:01:32;;;;;;;12.50;7.42;;;;;;;8.36;77.52;101696.82;1854910;76;21135;-69
2021/09/08 02:04:01;;;;;;;12.18;8.10;;;;;;;8.33;77.34;101698.06;1826868;76;21030;-69
2021/09/08 02:06:29;;;;;;;13.13;7.42;;;;;;;8.30;77.24;101694.48;1846971;77;21094;-68
2021/09/08 02:08:58;;;;;;;12.03;7.33;;;;;;;8.21;77.14;101690.44;1840745;76;21002;-69
2021/09/08 02:11:26;;;;;;;12.73;7.20;;;;;;;8.13;77.13;101689.38;1840960;77;20999;-69
2021/09/08 02:13:53;;;;;;;10.90;7.17;;;;;;;8.01;77.19;101693.20;1829961;76;21085;-69
2021/09/08 02:16:21;;;;;;;12.63;7.78;;;;;;;7.96;77.37;101702.32;1829719;77;21112;-69
2021/09/08 02:18:51;;;;;;;11.45;7.60;;;;;;;7.93;77.59;101704.07;1843607;76;21373;-69
2021/09/08 02:21:17;;;;;;;12.95;7.37;;;;;;;7.88;77.96;101692.74;1842708;76;21021;-69
2021/09/08 02:23:45;;;;;;;10.70;7.00;;;;;;;7.88;78.20;101699.39;1829301;76;21073;-69
2021/09/08 02:26:14;;;;;;;12.88;8.25;;;;;;;7.88;78.50;101695.41;1832628;76;21023;-69
2021/09/08 02:28:41;;;;;;;11.75;7.17;;;;;;;7.88;78.83;101697.25;1790922;79;21018;-67
2021/09/08 02:31:07;;;;;;;12.07;7.30;;;;;;;7.90;78.98;101697.87;1793304;78;21053;-69
2021/09/08 02:33:34;;;;;;;11.43;7.30;;;;;;;7.92;79.08;101694.47;1844620;76;21011;-69
2021/09/08 02:36:02;;;;;;;10.65;6.83;;;;;;;7.94;79.32;101697.22;1825525;76;21173;-70
2021/09/08 02:38:30;;;;;;;12.85;7.75;;;;;;;7.97;79.52;101698.65;1804852;76;21036;-69
2021/09/08 02:41:06;;;;;;;11.18;7.35;;;;;;;7.97;79.70;101702.13;1768197;79;21042;-69
2021/09/08 02:43:30;;;;;;;11.73;7.30;;;;;;;7.98;79.86;101698.95;1785076;78;21085;-69
2021/09/08 02:46:01;;;;;;;11.57;7.25;;;;;;;7.97;80.02;101697.32;1783021;78;20979;-69
2021/09/08 02:48:26;;;;;;;11.18;7.37;;;;;;;7.99;80.03;101700.08;1766844;78;21078;-69
2021/09/08 02:50:55;;;;;;;11.93;7.50;;;;;;;8.02;79.95;101701.48;1797229;78;20991;-69
2021/09/08 02:53:21;;;;;;;12.20;7.28;;;;;;;8.05;79.87;101699.73;1804703;78;21077;-69
2021/09/08 02:55:49;;;;;;;13.62;7.65;;;;;;;8.09;79.78;101699.59;1789950;78;21058;-69
2021/09/08 02:58:16;;;;;;;10.80;6.87;;;;;;;8.11;79.77;101704.20;1800159;78;21041;-69
2021/09/08 03:00:43;;;;;;;11.70;7.37;;;;;;;8.13;79.74;101703.48;1841084;76;21533;-69
2021/09/08 03:03:09;;;;;;;12.07;7.58;;;;;;;8.13;79.75;101704.82;1836876;76;21034;-70
2021/09/08 03:05:36;;;;;;;12.07;6.95;;;;;;;8.14;79.69;101701.13;1825050;76;21078;-69
2021/09/08 03:08:04;;;;;;;11.63;6.75;;;;;;;8.16;79.65;101697.74;1792831;78;20974;-70
2021/09/08 03:10:33;;;;;;;11.15;7.12;;;;;;;8.18;79.60;101702.84;1793468;78;21097;-69
2021/09/08 03:13:01;;;;;;;11.18;7.17;;;;;;;8.20;79.66;101705.59;1786404;78;21084;-70
2021/09/08 03:15:29;;;;;;;13.48;7.40;;;;;;;8.23;79.57;101698.52;1835433;76;21027;-69
2021/09/08 03:17:55;;;;;;;12.03;7.33;;;;;;;8.27;79.51;101703.42;1844611;76;21018;-69
2021/09/08 03:20:22;;;;;;;11.55;6.87;;;;;;;8.29;79.40;101694.20;1848718;76;21892;-69
2021/09/08 03:22:49;;;;;;;12.30;6.95;;;;;;;8.31;79.39;101693.97;1839202;77;21062;-69
2021/09/08 03:25:16;;;;;;;10.32;6.90;;;;;;;8.33;79.56;101695.91;1832699;76;21038;-69
2021/09/08 03:27:42;;;;;;;10.13;6.67;;;;;;;8.34;79.68;101687.70;1839344;76;21575;-70
2021/09/08 03:30:11;;;;;;;11.00;6.58;;;;;;;8.40;79.64;101697.53;1832196;76;21018;-70
2021/09/08 03:32:38;;;;;;;12.10;6.85;;;;;;;8.45;79.41;101692.36;1842320;76;21574;-69
2021/09/08 03:35:05;;;;;;;11.33;6.85;;;;;;;8.51;79.12;101693.36;1820935;76;21081;-69
2021/09/08 03:37:32;;;;;;;9.70;6.40;;;;;;;8.56;78.83;101690.87;1835079;76;21034;-70
2021/09/08 03:39:59;;;;;;;13.03;6.72;;;;;;;8.61;78.70;101688.37;1838389;76;21042;-69
2021/09/08 03:42:26;;;;;;;11.95;6.90;;;;;;;8.67;78.63;101695.50;1844632;76;21062;-70
2021/09/08 03:44:53;;;;;;;12.35;6.87;;;;;;;8.71;78.46;101695.06;1847408;76;21118;-68
2021/09/08 03:47:19;;;;;;;11.25;6.35;;;;;;;8.75;78.15;101696.25;1841849;77;20937;-69
2021/09/08 03:49:46;;;;;;;13.75;6.90;;;;;;;8.79;77.78;101689.48;1837680;76;20963;-69
2021/09/08 03:52:13;;;;;;;11.80;6.97;;;;;;;8.83;77.48;101690.16;1849372;76;20904;-69
2021/09/08 03:54:41;;;;;;;11.68;6.95;;;;;;;8.87;77.27;101689.20;1837994;76;21006;-70
2021/09/08 03:57:09;;;;;;;10.25;5.80;;;;;;;8.93;77.02;101691.81;1846071;76;21082;-68
2021/09/08 03:59:36;;;;;;;9.93;6.08;;;;;;;9.00;76.70;101695.75;1845583;76;20951;-71
2021/09/08 04:02:03;;;;;;;10.30;6.33;;;;;;;9.05;76.56;101690.59;1841082;76;20932;-69
2021/09/08 04:04:31;;;;;;;10.88;6.85;;;;;;;9.13;76.33;101688.97;1842423;75;20903;-70
2021/09/08 04:06:59;;;;;;;11.12;6.17;;;;;;;9.19;76.20;101689.95;1840460;76;20952;-70
2021/09/08 04:09:27;;;;;;;9.88;6.30;;;;;;;9.29;75.94;101690.78;1843886;77;21150;-70
2021/09/08 04:11:54;;;;;;;10.28;6.45;;;;;;;9.38;75.87;101692.94;1850549;76;20948;-71
2021/09/08 04:14:21;;;;;;;10.93;6.62;;;;;;;9.48;75.79;101696.43;1844104;77;20979;-69
2021/09/08 04:16:48;;;;;;;11.53;6.28;;;;;;;9.58;75.84;101696.73;1846662;76;20987;-69
2021/09/08 04:19:15;;;;;;;12.30;6.70;;;;;;;9.69;75.99;101690.34;1851589;76;20992;-71
2021/09/08 04:21:42;;;;;;;9.90;6.65;;;;;;;9.79;75.75;101690.64;1832449;76;21086;-69
2021/09/08 04:24:09;;;;;;;9.68;6.50;;;;;;;9.89;75.83;101688.25;1845759;77;21034;-70
2021/09/08 04:26:36;;;;;;;11.10;6.20;;;;;;;9.98;75.61;101689.58;1831500;76;20975;-70
2021/09/08 04:29:04;;;;;;;12.35;6.30;;;;;;;10.06;75.63;101685.25;1848828;76;21015;-69
2021/09/08 04:31:31;;;;;;;11.00;6.15;;;;;;;10.15;75.82;101690.29;1843010;76;21307;-69
2021/09/08 04:33:57;;;;;;;10.30;6.53;;;;;;;10.25;75.85;101683.36;1850640;76;21136;-70
2021/09/08 04:36:24;;;;;;;11.90;6.92;;;;;;;10.39;75.69;101686.67;1832921;77;20960;-68
2021/09/08 04:38:51;;;;;;;10.40;6.33;;;;;;;10.53;75.57;101683.31;1844665;76;20947;-69
2021/09/08 04:41:18;;;;;;;10.25;6.70;;;;;;;10.65;75.15;101688.14;1848993;76;21038;-70
2021/09/08 04:43:45;;;;;;;9.85;6.12;;;;;;;10.79;74.83;101688.24;1848740;76;20967;-71
2021/09/08 04:46:11;;;;;;;11.50;6.40;;;;;;;10.95;74.60;101682.71;1844761;77;21465;-70
2021/09/08 04:48:38;;;;;;;9.50;5.92;;;;;;;11.10;74.00;101686.27;1851171;76;20928;-69
2021/09/08 04:51:04;;;;;;;8.75;5.53;;;;;;;11.25;73.45;101688.47;1819625;77;20972;-69
2021/09/08 04:53:31;;;;;;;12.30;6.22;;;;;;;11.40;72.73;101679.98;1840890;76;21059;-69
2021/09/08 04:55:57;;;;;;;9.75;6.05;;;;;;;11.51;72.11;101679.95;1835001;76;21193;-69
2021/09/08 04:58:24;;;;;;;9.75;6.00;;;;;;;11.64;71.60;101678.88;1838791;77;21948;-68
2021/09/08 05:00:51;;;;;;;10.40;6.10;;;;;;;11.76;71.18;101680.73;1840913;76;20995;-70
2021/09/08 05:03:18;;;;;;;9.43;5.73;;;;;;;11.88;70.69;101675.66;1841652;76;21246;-70
2021/09/08 05:05:46;;;;;;;10.90;6.23;;;;;;;12.02;69.93;101678.86;1832187;77;21296;-68
2021/09/08 05:08:13;;;;;;;10.63;6.63;;;;;;;12.19;69.35;101685.06;1834069;76;21895;-69
2021/09/08 05:10:41;;;;;;;10.97;5.60;;;;;;;12.35;68.41;101684.83;1838255;76;21866;-69
2021/09/08 05:13:08;;;;;;;10.37;6.00;;;;;;;12.51;67.48;101678.40;1838363;77;21557;-70
2021/09/08 05:15:37;;;;;;;10.13;6.00;;;;;;;12.66;66.59;101681.31;1819254;76;21087;-69
2021/09/08 05:18:05;;;;;;;9.97;6.47;;;;;;;12.80;66.05;101680.45;1840987;76;21836;-69
2021/09/08 05:20:32;;;;;;;10.57;6.03;;;;;;;12.92;65.33;101678.52;1773591;79;21285;-69
2021/09/08 05:23:00;;;;;;;10.17;6.07;;;;;;;13.00;64.76;101675.97;1788437;78;21352;-70
2021/09/08 05:25:27;;;;;;;8.80;5.77;;;;;;;13.07;63.87;101670.70;1792261;78;21353;-70
2021/09/08 05:27:54;;;;;;;11.30;5.63;;;;;;;13.12;62.73;101661.38;1842622;77;21275;-69
2021/09/08 05:30:21;;;;;;;10.23;5.93;;;;;;;13.18;62.23;101658.77;1833050;77;21097;-69
2021/09/08 05:32:48;;;;;;;8.73;5.80;;;;;;;13.24;61.76;101652.42;1838893;76;21326;-69
2021/09/08 05:35:15;;;;;;;9.80;5.90;;;;;;;13.32;61.43;101654.70;1837923;76;21211;-70
2021/09/08 05:37:42;;;;;;;9.80;5.73;;;;;;;13.34;60.36;101654.73;1828686;76;21441;-69
2021/09/08 05:40:10;;;;;;;8.37;5.10;;;;;;;13.35;59.92;101652.33;1843350;77;21250;-69
2021/09/08 05:42:37;;;;;;;9.67;5.87;;;;;;;13.43;59.63;101658.34;1827359;76;21521;-69
2021/09/08 05:45:06;;;;;;;10.07;5.40;;;;;;;13.47;59.29;101656.25;1840539;76;21228;-69
2021/09/08 05:47:34;;;;;;;8.23;5.27;;;;;;;13.53;59.25;101652.57;1828018;76;21764;-69
2021/09/08 05:50:01;;;;;;;9.23;5.60;;;;;;;13.58;58.55;101647.78;1843618;76;21222;-70
2021/09/08 05:52:28;;;;;;;10.80;6.17;;;;;;;13.61;58.64;101645.41;1838862;76;21146;-69
2021/09/08 05:54:55;;;;;;;8.53;5.40;;;;;;;13.66;58.21;101641.98;1798299;78;21359;-69
2021/09/08 05:57:22;;;;;;;10.07;6.20;;;;;;;13.69;58.16;101646.86;1831912;76;21806;-69
2021/09/08 05:59:49;;;;;;;9.97;5.47;;;;;;;13.74;57.98;101640.72;1835836;76;21949;-69
2021/09/08 06:02:15;;;;;;;9.20;5.40;;;;;;;13.78;57.92;101648.55;1827391;76;21755;-70
2021/09/08 06:04:42;;;;;;;11.83;5.70;;;;;;;13.84;57.89;101646.20;1834801;76;21365;-69
2021/09/08 06:07:11;;;;;;;8.07;5.10;;;;;;;13.91;57.69;101647.34;1836802;76;21179;-69
2021/09/08 06:09:37;;;;;;;8.40;5.40;;;;;;;14.03;57.60;101650.70;1834788;76;21380;-69
2021/09/08 06:12:04;;;;;;;8.90;5.30;;;;;;;14.13;57.50;101652.69;1819172;77;21799;-69
2021/09/08 06:14:32;;;;;;;7.93;5.20;;;;;;;14.23;57.62;101652.25;1829840;76;21889;-69
2021/09/08 06:17:00;;;;;;;9.87;4.90;;;;;;;14.31;56.15;101648.28;1842168;76;21378;-69
2021/09/08 06:19:26;;;;;;;10.10;5.27;;;;;;;14.36;56.98;101647.53;1827023;77;21388;-69
2021/09/08 06:21:54;;;;;;;7.67;4.73;;;;;;;14.40;56.23;101646.75;1826869;77;21308;-69
2021/09/08 06:24:22;;;;;;;11.20;5.10;;;;;;;14.47;56.10;101648.69;1834484;77;21478;-70
2021/09/08 06:26:48;;;;;;;8.83;4.93;;;;;;;14.53;54.96;101645.55;1837829;76;21419;-70
2021/09/08 06:29:16;;;;;;;8.23;4.87;;;;;;;14.62;55.12;101647.24;1838882;76;21433;-69
2021/09/08 06:31:43;;;;;;;9.83;4.70;;;;;;;14.72;54.35;101641.40;1841884;77;21399;-69
2021/09/08 06:34:10;;;;;;;7.83;4.40;;;;;;;14.89;54.07;101638.55;1822234;76;21442;-70
2021/09/08 06:36:37;;;;;;;7.77;4.57;;;;;;;14.89;54.07;101638.55;1831108;77;21497;-68
2021/09/08 06:39:04;;;;;;;8.90;4.90;;;;;;;14.94;54.42;101629.18;1834054;76;21525;-68
2021/09/08 06:41:32;;;;;;;7.27;4.77;;;;;;;15.07;53.99;101631.11;1828432;76;21799;-69
2021/09/08 06:43:59;;;;;;;8.97;4.97;;;;;;;15.21;53.84;101628.25;1837795;76;21434;-69
2021/09/08 06:46:26;;;;;;;9.40;4.57;;;;;;;15.21;53.84;101628.25;1845879;77;22279;-69
2021/09/08 06:48:52;;;;;;;7.50;4.30;;;;;;;15.32;53.72;101625.88;1828850;76;21728;-69
2021/09/08 06:51:20;;;;;;;7.50;4.70;;;;;;;15.42;53.37;101625.11;1776470;79;46841;-69
2021/09/08 06:53:47;;;;;;;8.70;4.60;;;;;;;15.54;53.26;101624.35;1759657;79;21744;-69
2021/09/08 06:56:14;;;;;;;6.93;4.17;;;;;;;15.67;53.06;101620.39;1795893;78;21684;-69
2021/09/08 06:58:41;;;;;;;7.73;4.40;;;;;;;15.78;53.57;101617.17;1792545;78;21788;-69
2021/09/08 07:01:08;;;;;;;6.57;4.20;;;;;;;15.95;53.76;101624.48;1797335;78;22115;-70
2021/09/08 07:03:35;;;;;;;7.97;4.27;;;;;;;16.13;53.08;101627.22;1837693;77;21677;-69
2021/09/08 07:06:02;;;;;;;7.80;4.47;;;;;;;16.26;52.30;101619.15;1817896;77;21736;-69
2021/09/08 07:08:29;;;;;;;7.67;4.17;;;;;;;16.36;51.76;101617.80;1841544;77;21688;-69
2021/09/08 07:10:56;;;;;;;7.73;4.07;;;;;;;16.49;52.15;101620.50;1824439;76;22190;-70
2021/09/08 07:13:23;;;;;;;14.93;5.27;;;;;;;16.63;51.36;101621.02;1782211;78;21698;-70
2021/09/08 07:15:49;;;;;;;10.47;4.40;;;;;;;16.76;52.15;101618.88;1789333;78;21788;-70
2021/09/08 07:18:17;;;;;;;10.10;4.50;;;;;;;16.91;51.87;101618.83;1794725;78;22308;-69
2021/09/08 07:20:44;;;;;;;8.50;4.40;;;;;;;17.09;51.47;101622.84;1780923;79;21487;-69
2021/09/08 07:23:11;;;;;;;6.80;3.83;;;;;;;17.18;51.12;101618.50;1833992;76;21191;-69
2021/09/08 07:25:38;;;;;;;7.00;3.97;;;;;;;17.35;50.87;101622.22;1838183;76;21553;-69
2021/09/08 07:28:05;;;;;;;7.87;3.47;;;;;;;17.54;51.07;101625.92;1836255;76;20895;-69
2021/09/08 07:30:32;;;;;;;14.40;4.33;;;;;;;17.74;49.66;101622.85;1833090;77;20975;-69
2021/09/08 07:33:00;;;;;;;13.73;4.80;;;;;;;17.83;48.98;101622.53;1833580;77;21018;-69
2021/09/08 07:35:26;;;;;;;8.47;3.80;;;;;;;17.90;49.40;101618.17;1822973;76;21387;-70
2021/09/08 07:37:54;;;;;;;8.23;4.23;;;;;;;18.01;49.61;101621.89;1840600;76;21272;-69
2021/09/08 07:40:22;;;;;;;6.53;3.53;;;;;;;18.13;48.04;101620.72;1833456;76;21517;-70
2021/09/08 07:42:51;;;;;;;8.50;4.07;;;;;;;18.17;47.74;101610.97;1834400;76;21173;-70
2021/09/08 07:45:18;;;;;;;7.63;3.97;;;;;;;18.21;47.99;101616.87;1830139;76;21526;-70
2021/09/08 07:47:45;;;;;;;6.47;3.90;;;;;;;18.28;47.81;101620.61;1831558;76;21058;-70
2021/09/08 07:50:12;;;;;;;6.30;3.63;;;;;;;18.35;47.28;101627.05;1829927;76;21130;-70
2021/09/08 07:52:39;;;;;;;7.57;4.10;;;;;;;18.40;46.63;101622.41;1830643;76;21680;-69
2021/09/08 07:55:07;;;;;;;7.07;4.00;;;;;;;18.43;46.42;101623.20;1829498;76;21042;-69
2021/09/08 07:57:33;;;;;;;9.97;4.20;;;;;;;18.48;46.58;101611.52;1835502;76;21082;-69
2021/09/08 08:00:00;;;;;;;7.47;4.00;;;;;;;18.56;46.78;101608.73;1827800;77;21062;-70
2021/09/08 08:02:27;;;;;;;5.90;3.60;;;;;;;18.63;46.60;101607.33;1828453;76;21788;-70
2021/09/08 08:04:54;;;;;;;6.80;3.70;;;;;;;18.73;46.92;101603.75;1820141;76;21534;-69
2021/09/08 08:07:21;;;;;;;8.93;3.80;;;;;;;18.86;47.35;101602.27;1830279;76;20990;-70
2021/09/08 08:09:48;;;;;;;9.13;4.13;;;;;;;19.03;47.19;101599.09;1833355;76;21050;-69
2021/09/08 08:12:15;;;;;;;9.63;3.87;;;;;;;19.18;46.67;101594.84;1829702;77;21065;-69
2021/09/08 08:14:42;;;;;;;6.53;3.40;;;;;;;19.29;46.32;101592.83;1834882;76;21663;-69
2021/09/08 08:17:10;;;;;;;5.77;3.60;;;;;;;19.40;45.50;101593.75;1829442;76;21074;-70
2021/09/08 08:19:36;;;;;;;9.93;3.83;;;;;;;19.48;44.83;101591.48;1832521;76;20983;-69
2021/09/08 08:22:03;;;;;;;7.23;3.30;;;;;;;19.56;44.57;101595.70;1836144;77;21109;-68
2021/09/08 08:24:30;;;;;;;6.97;3.27;;;;;;;19.63;44.49;101597.53;1821029;76;21010;-69
2021/09/08 08:27:00;;;;;;;7.30;3.50;;;;;;;19.70;43.83;101590.95;1828232;76;21523;-70
2021/09/08 08:29:26;;;;;;;6.07;3.30;;;;;;;19.74;44.67;101591.41;1811275;77;21015;-70
2021/09/08 08:31:52;;;;;;;6.30;3.33;;;;;;;19.84;43.37;101589.93;1825483;77;21585;-71
2021/09/08 08:34:19;;;;;;;8.03;4.00;;;;;;;19.95;43.82;101591.12;1824421;76;20983;-70
2021/09/08 08:36:45;;;;;;;8.03;3.30;;;;;;;20.03;44.21;101594.52;1762572;79;21030;-69
2021/09/08 08:39:12;;;;;;;8.77;3.70;;;;;;;20.15;44.17;101599.73;1803763;78;21145;-70
2021/09/08 08:41:40;;;;;;;10.60;4.37;;;;;;;20.31;44.07;101604.92;1794908;78;21017;-69
2021/09/08 08:44:07;;;;;;;6.70;3.60;;;;;;;20.47;42.55;101599.49;1823750;76;21014;-69
2021/09/08 08:46:33;;;;;;;4.73;3.00;;;;;;;20.58;42.75;101596.87;1807533;77;21196;-69
2021/09/08 08:49:00;;;;;;;7.20;3.77;;;;;;;20.70;42.27;101599.11;1820640;77;20995;-70
2021/09/08 08:51:27;;;;;;;7.97;4.20;;;;;;;20.76;41.76;101593.84;1831096;77;21088;-69
2021/09/08 08:53:55;;;;;;;6.57;3.50;;;;;;;20.87;42.08;101590.93;1830587;76;21093;-68
2021/09/08 08:56:23;;;;;;;6.83;3.70;;;;;;;20.98;42.22;101580.91;1846673;77;21132;-70
2021/09/08 08:58:52;;;;;;;7.93;3.67;;;;;;;21.11;41.73;101589.36;1829980;76;21149;-69
2021/09/08 09:01:24;;;;;;;6.83;3.37;;;;;;;21.22;41.33;101588.03;1826387;76;21069;-70
2021/09/08 09:04:08;;;;;;;6.63;3.10;;;;;;;21.31;41.01;101584.30;1830913;76;20983;-70
2021/09/08 09:06:40;;;;;;;7.90;3.10;;;;;;;21.39;40.43;101577.92;1760872;78;21481;-70
2021/09/08 09:09:14;;;;;;;6.50;3.13;;;;;;;21.45;39.26;101583.50;1800787;78;20984;-69
2021/09/08 09:11:45;;;;;;;7.13;3.20;;;;;;;21.50;39.45;101584.76;1783777;78;21037;-70
2021/09/08 09:14:12;;;;;;;7.70;3.53;;;;;;;21.57;39.26;101581.06;1794674;79;21101;-70
2021/09/08 09:16:43;;;;;;;6.57;3.30;;;;;;;21.59;38.44;101570.70;1777769;78;21042;-70
2021/09/08 09:19:11;;;;;;;8.03;3.77;;;;;;;21.54;38.63;101572.95;1796765;78;21176;-69
2021/09/08 09:21:38;;;;;;;7.50;3.50;;;;;;;21.54;38.53;101568.87;1793238;78;21066;-70
2021/09/08 09:24:08;;;;;;;5.60;3.30;;;;;;;21.51;38.74;101563.25;1789991;78;21035;-70
2021/09/08 09:26:39;;;;;;;6.07;3.17;;;;;;;21.54;38.89;101568.08;1776459;78;21034;-69
2021/09/08 09:29:10;;;;;;;8.55;3.20;;;;;;;21.63;38.66;101558.65;1790626;78;21130;-70
2021/09/08 09:31:52;;;;;;;5.92;3.42;;;;;;;21.72;38.31;101551.38;1830826;76;27176;-69
2021/09/08 09:34:21;;;;;;;7.13;3.70;;;;;;;21.77;37.57;101550.67;1833972;76;21031;-69
2021/09/08 09:36:54;;;;;;;5.70;3.10;;;;;;;21.72;37.56;101548.09;1848681;77;21022;-70
2021/09/08 09:39:21;;;;;;;6.50;3.53;;;;;;;21.69;37.78;101547.34;1843512;76;21003;-69
2021/09/08 09:41:48;;;;;;;6.37;3.47;;;;;;;21.74;38.03;101551.29;1833373;76;21074;-69
2021/09/08 09:44:15;;;;;;;5.87;3.00;;;;;;;21.81;38.03;101546.78;1822499;77;21051;-70
2021/09/08 09:46:44;;;;;;;5.47;3.43;;;;;;;21.87;37.85;101543.39;1793315;79;21070;-69
2021/09/08 09:49:13;;;;;;;5.77;3.03;;;;;;;21.89;36.91;101537.89;1769226;79;21027;-70
2021/09/08 09:51:41;;;;;;;6.10;3.23;;;;;;;21.93;37.33;101538.08;1800820;78;21065;-69
2021/09/08 09:54:08;;;;;;;7.47;3.10;;;;;;;21.97;37.11;101528.18;1798746;78;21285;-70
2021/09/08 09:56:38;;;;;;;5.37;2.90;;;;;;;22.03;37.29;101522.06;1801456;79;21019;-69
2021/09/08 09:59:05;;;;;;;7.17;3.20;;;;;;;22.14;37.06;101518.75;1781054;78;20998;-70
2021/09/08 10:01:32;;;;;;;6.53;3.33;;;;;;;22.26;36.95;101511.98;1767464;79;21062;-69
2021/09/08 10:04:00;;;;;;;5.13;3.07;;;;;;;22.36;36.91;101505.70;1761255;79;21155;-70
2021/09/08 10:06:27;;;;;;;4.67;3.10;;;;;;;22.43;37.38;101502.52;1750304;79;21865;-69
2021/09/08 10:08:56;;;;;;;4.87;2.93;;;;;;;22.51;36.48;101501.77;1818802;76;21073;-70
2021/09/08 10:11:25;;;;;;;6.90;3.00;;;;;;;22.57;36.11;101500.48;1825150;77;21510;-70
2021/09/08 10:13:57;;;;;;;5.87;3.17;;;;;;;22.62;36.74;101501.72;1804750;77;21563;-70
2021/09/08 10:16:24;;;;;;;6.17;3.15;;;;;;;22.69;35.93;101493.88;1824757;76;22165;-70
2021/09/08 10:18:53;;;;;;;5.47;3.33;;;;;;;22.73;35.86;101490.53;1739454;76;21552;-70
2021/09/08 10:21:20;;;;;;;4.80;3.10;;;;;;;22.74;36.41;101491.59;1842337;76;21063;-71
2021/09/08 10:23:55;;;;;;;7.40;2.97;;;;;;;22.78;36.13;101489.84;1826417;76;21045;-70
2021/09/08 10:26:28;;;;;;;6.67;3.20;;;;;;;22.75;36.08;101495.91;1825049;77;21022;-70
2021/09/08 10:28:52;;;;;;;5.87;3.30;;;;;;;22.70;35.76;101481.89;1825031;76;21553;-69
2021/09/08 10:31:18;;;;;;;6.80;3.30;;;;;;;22.73;35.82;101486.45;1816124;77;21199;-69
2021/09/08 10:33:45;;;;;;;4.43;2.83;;;;;;;22.73;35.60;101482.36;1831839;76;21007;-69
2021/09/08 10:36:15;;;;;;;5.13;2.97;;;;;;;22.75;36.16;101485.58;1823833;77;21023;-70
2021/09/08 10:38:42;;;;;;;4.80;3.07;;;;;;;22.79;35.07;101485.98;1847522;76;21110;-69
2021/09/08 10:41:09;;;;;;;6.17;3.23;;;;;;;22.73;35.42;101481.00;1840991;76;21652;-69
2021/09/08 10:43:38;;;;;;;6.53;3.10;;;;;;;22.64;35.29;101481.80;1809910;77;21044;-70
2021/09/08 10:46:06;;;;;;;5.07;3.10;;;;;;;22.64;35.88;101476.91;1833327;77;21003;-70
2021/09/08 10:48:43;;;;;;;7.07;3.20;;;;;;;22.67;35.58;101470.27;1839160;76;21014;-69
2021/09/08 10:51:35;;;;;;;7.27;3.40;;;;;;;22.70;35.78;101465.55;1836097;76;21085;-70
2021/09/08 10:54:05;;;;;;;6.17;3.10;;;;;;;22.72;36.42;101467.95;1767264;79;21064;-68
2021/09/08 10:56:53;;;;;;;5.73;3.07;;;;;;;22.81;34.84;101474.78;1798441;79;21873;-69
2021/09/08 10:59:20;;;;;;;4.97;3.17;;;;;;;22.78;34.52;101463.16;1755290;79;21038;-68
2021/09/08 11:01:54;;;;;;;7.13;3.40;;;;;;;22.84;35.14;101471.43;1798394;78;21033;-69
2021/09/08 11:04:21;;;;;;;9.63;3.87;;;;;;;22.92;35.88;101474.15;1782179;79;22234;-68
2021/09/08 11:06:49;;;;;;;5.60;3.50;;;;;;;23.01;34.98;101463.87;1798983;78;21195;-69
2021/09/08 11:09:18;;;;;;;6.93;3.37;;;;;;;22.96;35.19;101462.64;1829480;77;21128;-69
2021/09/08 11:11:56;;;;;;;6.20;3.63;;;;;;;22.94;36.13;101467.86;1842053;76;21038;-68
2021/09/08 11:14:48;;;;;;;5.07;3.30;;;;;;;23.00;34.48;101460.88;1843782;77;21537;-68
2021/09/08 11:17:24;;;;;;;4.67;3.17;;;;;;;22.99;35.21;101457.36;1832482;77;21019;-68
2021/09/08 11:19:56;;;;;;;6.33;3.57;;;;;;;23.01;35.00;101466.03;1834200;76;21062;-68
2021/09/08 11:22:24;;;;;;;9.57;3.40;;;;;;;23.10;35.65;101458.67;1835704;76;21794;-68
2021/09/08 11:25:09;;;;;;;5.20;3.53;;;;;;;23.22;35.39;101466.20;1842593;77;21008;-69
2021/09/08 11:27:39;;;;;;;5.20;3.57;;;;;;;23.18;34.93;101461.95;1818183;77;21034;-68